createdAt,value
2018-09-22T10:03:16.181Z,59.11
2018-09-22T10:05:44.483Z,58.39
2018-09-22T10:08:12.602Z,58.40
2018-09-22T10:10:40.775Z,59.15
2018-09-22T10:13:08.946Z,57.98
2018-09-22T10:15:36.690Z,56.16
2018-09-22T10:18:04.589Z,55.62
2018-09-22T10:20:32.852Z,55.88
2018-09-22T10:23:00.718Z,61.06
2018-09-22T10:25:28.451Z,57.21
2018-09-22T10:27:56.227Z,57.75
2018-09-22T10:30:24.316Z,58.12
2018-09-22T10:32:52.485Z,56.17
2018-09-22T10:35:20.350Z,55.22
2018-09-22T10:37:48.080Z,55.11
2018-09-22T10:40:16.149Z,54.09
2018-09-22T10:42:44.358Z,53.68
2018-09-22T10:45:12.422Z,53.88
2018-09-22T10:47:40.577Z,54.21
2018-09-22T10:50:08.513Z,54.48
2018-09-22T10:52:36.485Z,53.31
2018-09-22T10:55:04.275Z,53.23
2018-09-22T10:57:32.049Z,53.63
2018-09-22T10:59:59.778Z,54.91
2018-09-22T11:02:27.526Z,53.13
2018-09-22T11:04:55.293Z,53.72
2018-09-22T11:07:23.055Z,53.46
2018-09-22T11:09:50.793Z,52.39
2018-09-22T11:12:18.538Z,50.86
2018-09-22T11:14:46.253Z,50.62
2018-09-22T11:17:13.974Z,50.96
2018-09-22T11:19:41.676Z,50.61
2018-09-22T11:22:09.426Z,50.80
2018-09-22T11:24:37.135Z,51.10
2018-09-22T11:27:04.992Z,51.18
2018-09-22T11:29:32.729Z,50.87
2018-09-22T11:32:00.438Z,49.54
2018-09-22T11:34:28.209Z,48.86
2018-09-22T11:36:55.934Z,49.17
2018-09-22T11:39:23.642Z,47.74
2018-09-22T11:41:51.358Z,47.65
2018-09-22T11:44:19.165Z,47.90
2018-09-22T11:46:46.894Z,48.44
2018-09-22T11:49:14.597Z,47.14
2018-09-22T11:51:42.324Z,46.85
2018-09-22T11:54:10.050Z,44.62
2018-09-22T11:56:37.775Z,44.82
2018-09-22T11:59:05.510Z,44.01
2018-09-22T12:01:33.253Z,40.85
2018-09-22T12:04:00.988Z,40.34
2018-09-22T12:06:28.741Z,41.40
2018-09-22T12:08:56.472Z,44.50
2018-09-22T12:11:24.192Z,44.75
2018-09-22T12:13:51.923Z,45.64
2018-09-22T12:16:19.648Z,43.53
2018-09-22T12:18:47.394Z,44.03
2018-09-22T12:21:15.152Z,43.42
2018-09-22T12:23:42.911Z,43.64
2018-09-22T12:26:10.642Z,43.79
2018-09-22T12:28:38.369Z,43.19
2018-09-22T12:31:06.106Z,42.90
2018-09-22T12:33:33.877Z,43.16
2018-09-22T12:36:01.717Z,43.39
2018-09-22T12:38:29.434Z,42.49
2018-09-22T12:40:57.155Z,43.68
2018-09-22T12:43:24.874Z,45.75
2018-09-22T12:45:52.621Z,45.10
2018-09-22T12:48:20.334Z,44.31
2018-09-22T12:50:48.094Z,43.15
2018-09-22T12:53:15.825Z,43.21
2018-09-22T12:55:43.583Z,43.24
2018-09-22T12:58:11.330Z,42.69
2018-09-22T13:00:39.093Z,41.38
2018-09-22T13:03:06.866Z,43.50
2018-09-22T13:05:34.598Z,44.05
2018-09-22T13:08:02.363Z,44.63
2018-09-22T13:10:30.092Z,43.11
2018-09-22T13:12:57.826Z,42.80
2018-09-22T13:15:25.570Z,41.59
2018-09-22T13:17:53.282Z,41.69
2018-09-22T13:20:21.104Z,43.35
2018-09-22T13:22:48.758Z,42.52
2018-09-22T13:25:16.483Z,41.30
2018-09-22T13:27:44.210Z,38.71
2018-09-22T13:30:11.949Z,39.57
2018-09-22T13:32:39.661Z,39.75
2018-09-22T13:35:07.713Z,39.19
2018-09-22T13:37:35.432Z,39.21
2018-09-22T13:40:03.223Z,39.40
2018-09-22T13:42:30.993Z,37.85
2018-09-22T13:44:58.742Z,39.50
2018-09-22T13:47:26.497Z,37.74
2018-09-22T13:49:54.219Z,38.57
2018-09-22T13:52:21.957Z,37.27
2018-09-22T13:54:49.689Z,39.28
2018-09-22T13:57:17.426Z,36.21
2018-09-22T13:59:45.156Z,35.14
2018-09-22T14:02:12.907Z,35.14
2018-09-22T14:04:40.629Z,35.34
2018-09-22T14:07:08.366Z,36.36
2018-09-22T14:09:36.089Z,37.85
2018-09-22T14:12:03.800Z,37.09
2018-09-22T14:14:31.550Z,39.73
2018-09-22T14:16:59.299Z,38.24
2018-09-22T14:19:27.018Z,36.42
2018-09-22T14:21:54.774Z,39.55
2018-09-22T14:24:22.573Z,38.75
2018-09-22T14:26:50.268Z,38.56
2018-09-22T14:29:18.076Z,37.03
2018-09-22T14:31:45.849Z,38.91
2018-09-22T14:34:13.597Z,40.55
2018-09-22T14:36:41.319Z,36.94
2018-09-22T14:39:09.081Z,37.08
2018-09-22T14:41:36.798Z,35.90
2018-09-22T14:44:04.518Z,38.80
2018-09-22T14:46:32.238Z,41.23
2018-09-22T14:48:59.964Z,38.23
2018-09-22T14:51:27.718Z,42.40
2018-09-22T14:53:55.434Z,41.67
2018-09-22T14:56:23.164Z,39.34
2018-09-22T14:58:50.930Z,42.99
2018-09-22T15:01:18.674Z,40.67
2018-09-22T15:03:46.461Z,40.40
2018-09-22T15:06:14.180Z,40.67
2018-09-22T15:08:41.893Z,43.90
2018-09-22T15:11:09.654Z,40.94
2018-09-22T15:13:37.390Z,43.83
2018-09-22T15:16:05.114Z,41.70
2018-09-22T15:18:32.841Z,47.03
2018-09-22T15:21:00.553Z,45.39
2018-09-22T15:23:28.265Z,47.88
2018-09-22T15:25:56.027Z,48.48
2018-09-22T15:28:23.777Z,43.31
2018-09-22T15:30:51.549Z,47.43
2018-09-22T15:33:19.294Z,42.82
2018-09-22T15:35:47.097Z,43.85
2018-09-22T15:38:14.826Z,42.65
2018-09-22T15:40:42.546Z,49.49
2018-09-22T15:43:10.292Z,47.66
2018-09-22T15:45:38.068Z,48.37
2018-09-22T15:48:05.858Z,47.91
2018-09-22T15:50:33.563Z,45.36
2018-09-22T15:53:01.322Z,47.20
2018-09-22T15:55:29.058Z,47.20
2018-09-22T15:57:56.751Z,47.07
2018-09-22T16:00:26.787Z,48.04
2018-09-22T16:02:54.498Z,50.32
2018-09-22T16:05:22.198Z,50.45
2018-09-22T16:07:49.966Z,46.00
2018-09-22T16:10:17.710Z,49.54
2018-09-22T16:12:45.431Z,50.76
2018-09-22T16:15:13.141Z,47.99
2018-09-22T16:17:40.857Z,46.66
2018-09-22T16:20:08.592Z,50.15
2018-09-22T16:22:36.294Z,51.25
2018-09-22T16:25:04.115Z,48.60
2018-09-22T16:27:31.823Z,52.82
2018-09-22T16:29:59.530Z,51.71
2018-09-22T16:32:27.609Z,51.19
2018-09-22T16:34:55.346Z,51.72
2018-09-22T16:37:23.095Z,53.24
2018-09-22T16:39:50.875Z,53.09
2018-09-22T16:42:18.611Z,53.53
2018-09-22T16:44:46.359Z,53.90
2018-09-22T16:47:14.087Z,53.45
2018-09-22T16:49:41.789Z,53.68
2018-09-22T16:52:09.503Z,53.88
2018-09-22T16:54:37.218Z,52.82
2018-09-22T16:57:04.987Z,53.46
2018-09-22T16:59:32.773Z,52.66
2018-09-22T17:03:03.675Z,55.26
2018-09-22T17:05:31.406Z,55.22
2018-09-22T17:07:59.145Z,54.69
2018-09-22T17:10:26.871Z,56.07
2018-09-22T17:12:54.631Z,55.49
2018-09-22T17:15:22.345Z,56.55
2018-09-22T17:17:50.146Z,56.00
2018-09-22T17:20:17.895Z,56.50
2018-09-22T17:22:45.608Z,56.43
2018-09-22T17:25:13.378Z,57.80
2018-09-22T17:27:41.147Z,57.65
2018-09-22T17:30:08.889Z,57.54
2018-09-22T17:32:36.621Z,57.59
2018-09-22T17:35:04.427Z,57.73
2018-09-22T17:37:32.130Z,57.61
2018-09-22T17:39:59.842Z,58.03
2018-09-22T17:42:27.582Z,55.53
2018-09-22T17:44:55.327Z,57.74
2018-09-22T17:47:23.063Z,55.78
2018-09-22T17:49:50.814Z,56.75
2018-09-22T17:52:18.556Z,57.09
2018-09-22T17:54:46.272Z,56.92
2018-09-22T17:57:14.005Z,58.20
2018-09-22T17:59:41.795Z,56.29
2018-09-22T18:02:09.712Z,56.50
2018-09-22T18:04:37.461Z,57.79
2018-09-22T18:07:05.320Z,56.60
2018-09-22T18:09:33.065Z,56.87
2018-09-22T18:12:00.823Z,57.58
2018-09-22T18:14:29.409Z,55.66
2018-09-22T18:16:57.149Z,55.04
2018-09-22T18:19:24.981Z,58.19
2018-09-22T18:21:52.937Z,56.44
2018-09-22T18:24:20.781Z,57.39
2018-09-22T18:26:48.502Z,56.10
2018-09-22T18:29:16.230Z,57.18
2018-09-22T18:31:43.994Z,55.27
2018-09-22T18:34:12.158Z,55.45
2018-09-22T18:36:39.933Z,57.37
2018-09-22T18:39:08.146Z,55.04
2018-09-22T18:41:36.141Z,54.52
2018-09-22T18:44:04.170Z,54.80
2018-09-22T18:46:31.933Z,55.99
2018-09-22T18:48:59.706Z,55.64
2018-09-22T18:51:27.425Z,56.63
2018-09-22T18:53:55.139Z,54.57
2018-09-22T18:56:22.893Z,55.69
2018-09-22T18:58:50.678Z,55.31
2018-09-22T19:01:18.632Z,55.36
2018-09-22T19:03:46.393Z,55.38
2018-09-22T19:06:14.146Z,55.98
2018-09-22T19:08:41.860Z,54.66
2018-09-22T19:11:09.666Z,55.89
2018-09-22T19:13:41.898Z,57.22
2018-09-22T19:16:15.033Z,56.46
2018-09-22T19:18:48.494Z,56.06
2018-09-22T19:21:23.437Z,56.76
2018-09-22T19:23:58.776Z,55.79
2018-09-22T19:26:31.929Z,58.12
2018-09-22T19:29:17.126Z,56.05
2018-09-22T19:31:50.442Z,56.32
2018-09-22T19:34:22.379Z,55.92
2018-09-22T19:36:55.242Z,56.93
2018-09-22T19:39:54.750Z,58.69
2018-09-22T19:42:30.003Z,57.32
2018-09-22T19:45:04.978Z,58.97
2018-09-22T19:47:56.850Z,56.62
2018-09-22T19:50:28.909Z,56.01
2018-09-22T19:52:57.719Z,57.16
2018-09-22T19:55:25.453Z,56.68
2018-09-22T19:57:53.215Z,56.12
2018-09-22T20:00:20.933Z,59.40
2018-09-22T20:02:48.668Z,57.29
2018-09-22T20:05:16.394Z,56.15
2018-09-22T20:07:44.102Z,57.63
2018-09-22T20:10:11.823Z,57.01
2018-09-22T20:12:39.582Z,57.31
2018-09-22T20:15:07.318Z,58.06
2018-09-22T20:17:35.095Z,57.84
2018-09-22T20:20:02.818Z,56.74
2018-09-22T20:22:30.573Z,58.65
2018-09-22T20:24:58.296Z,57.91
2018-09-22T20:27:26.047Z,60.27
2018-09-22T20:29:53.766Z,59.62
2018-09-22T20:32:21.578Z,57.49
2018-09-22T20:34:49.287Z,57.87
2018-09-22T20:37:17.020Z,58.06
2018-09-22T20:39:44.766Z,57.64
2018-09-22T20:42:12.482Z,57.69
2018-09-22T20:44:40.203Z,57.56
2018-09-22T20:47:07.934Z,56.57
2018-09-22T20:49:35.661Z,58.34
2018-09-22T20:52:03.369Z,56.92
2018-09-22T20:54:31.083Z,59.45
2018-09-22T20:56:58.810Z,57.29
2018-09-22T20:59:26.528Z,57.96
2018-09-22T21:01:54.309Z,57.45
2018-09-22T21:04:22.034Z,60.58
2018-09-22T21:06:49.742Z,57.18
2018-09-22T21:09:17.451Z,60.95
2018-09-22T21:11:45.167Z,59.34
2018-09-22T21:14:12.900Z,58.36
2018-09-22T21:16:40.602Z,58.81
2018-09-22T21:19:08.402Z,58.25
2018-09-22T21:21:36.126Z,58.32
2018-09-22T21:24:03.873Z,58.86
2018-09-22T21:26:31.615Z,57.74
2018-09-22T21:28:59.335Z,60.76
2018-09-22T21:31:27.058Z,58.45
2018-09-22T21:33:54.802Z,60.51
2018-09-22T21:36:22.513Z,59.41
2018-09-22T21:38:50.241Z,58.55
2018-09-22T21:41:17.943Z,57.35
2018-09-22T21:43:45.730Z,58.36
2018-09-22T21:46:13.437Z,58.83
2018-09-22T21:48:41.159Z,59.04
2018-09-22T21:51:08.880Z,60.34
2018-09-22T21:53:36.715Z,60.79
2018-09-22T21:56:04.466Z,59.14
2018-09-22T21:58:32.194Z,57.95
2018-09-22T22:00:59.941Z,58.75
2018-09-22T22:03:27.713Z,58.74
2018-09-22T22:05:55.476Z,58.91
2018-09-22T22:08:23.282Z,60.46
2018-09-22T22:10:51.043Z,59.15
2018-09-22T22:13:18.805Z,59.60
2018-09-22T22:15:46.608Z,58.53
2018-09-22T22:18:14.408Z,59.18
2018-09-22T22:20:42.173Z,59.58
2018-09-22T22:23:10.022Z,59.09
2018-09-22T22:25:37.927Z,58.57
2018-09-22T22:28:05.942Z,59.07
2018-09-22T22:30:33.720Z,60.14
2018-09-22T22:33:01.468Z,61.11
2018-09-22T22:35:29.233Z,60.13
2018-09-22T22:37:56.985Z,60.62
2018-09-22T22:40:24.755Z,60.85
2018-09-22T22:42:52.527Z,61.00
2018-09-22T22:45:20.336Z,61.83
2018-09-22T22:47:49.971Z,58.85
2018-09-22T22:50:20.267Z,60.35
2018-09-22T22:52:48.644Z,59.01
2018-09-22T22:55:16.384Z,60.42
2018-09-22T22:57:44.078Z,60.02
2018-09-22T23:00:11.800Z,59.07
2018-09-22T23:02:40.068Z,61.00
2018-09-22T23:05:07.790Z,60.02
2018-09-22T23:07:35.500Z,61.65
2018-09-22T23:10:03.265Z,59.81
2018-09-22T23:12:30.974Z,60.51
2018-09-22T23:14:59.672Z,59.34
2018-09-22T23:17:27.394Z,59.08
2018-09-22T23:19:55.136Z,60.86
2018-09-22T23:22:22.838Z,59.74
2018-09-22T23:24:50.578Z,62.89
2018-09-22T23:27:18.326Z,59.67
2018-09-22T23:29:46.061Z,59.47
2018-09-22T23:32:13.906Z,59.58
2018-09-22T23:34:41.707Z,60.70
2018-09-22T23:37:09.519Z,60.28
2018-09-22T23:39:37.228Z,60.11
2018-09-22T23:42:04.971Z,60.36
2018-09-22T23:44:32.689Z,60.14
2018-09-22T23:47:00.423Z,59.91
2018-09-22T23:49:28.124Z,60.96
2018-09-22T23:51:56.164Z,61.58
2018-09-22T23:54:23.955Z,59.82
2018-09-22T23:56:52.157Z,61.28
2018-09-22T23:59:20.230Z,60.00
